sensor_id;sensor_type;location;lat;lon;timestamp;temperature;humidity
1129;DHT22;553;51.038;7.216;2024-01-15T00:00:16;1.10;99.90
1129;DHT22;553;51.038;7.216;2024-01-15T00:02:43;1.10;99.90
1129;DHT22;553;51.038;7.216;2024-01-15T00:05:10;1.10;99.90
1129;DHT22;553;51.038;7.216;2024-01-15T00:07:37;1.10;99.90
1129;DHT22;553;51.038;7.216;2024-01-15T00:10:04;1.10;99.90
1129;DHT22;553;51.038;7.216;2024-01-15T00:12:31;1.10;99.90
1129;DHT22;553;51.038;7.216;2024-01-15T00:14:58;1.10;99.90
1129;DHT22;553;51.038;7.216;2024-01-15T00:17:24;1.20;99.90
1129;DHT22;553;51.038;7.216;2024-01-15T00:19:51;1.20;99.90
1129;DHT22;553;51.038;7.216;2024-01-15T00:22:19;1.20;99.90
1129;DHT22;553;51.038;7.216;2024-01-15T00:24:46;1.20;99.90
1129;DHT22;553;51.038;7.216;2024-01-15T00:27:13;1.20;99.90
1129;DHT22;553;51.038;7.216;2024-01-15T00:29:40;1.20;99.90
1129;DHT22;553;51.038;7.216;2024-01-15T00:32:07;1.30;99.90
1129;DHT22;553;51.038;7.216;2024-01-15T00:34:33;1.30;99.90
1129;DHT22;553;51.038;7.216;2024-01-15T00:37:00;1.30;99.90
1129;DHT22;553;51.038;7.216;2024-01-15T00:39:27;1.30;99.90
1129;DHT22;553;51.038;7.216;2024-01-15T00:41:54;1.20;99.90
1129;DHT22;553;51.038;7.216;2024-01-15T00:44:21;1.10;99.90
1129;DHT22;553;51.038;7.216;2024-01-15T00:46:48;1.00;99.90
1129;DHT22;553;51.038;7.216;2024-01-15T00:49:15;1.10;99.90
1129;DHT22;553;51.038;7.216;2024-01-15T00:51:42;1.00;99.90
1129;DHT22;553;51.038;7.216;2024-01-15T00:54:09;1.10;99.90
1129;DHT22;553;51.038;7.216;2024-01-15T00:56:37;1.10;99.90
1129;DHT22;553;51.038;7.216;2024-01-15T00:59:03;1.10;99.90
1129;DHT22;553;51.038;7.216;2024-01-15T01:01:30;1.00;99.90
1129;DHT22;553;51.038;7.216;2024-01-15T01:03:57;1.00;99.90
1129;DHT22;553;51.038;7.216;2024-01-15T01:06:24;1.00;99.90
1129;DHT22;553;51.038;7.216;2024-01-15T01:08:51;1.00;99.90
1129;DHT22;553;51.038;7.216;2024-01-15T01:11:18;1.00;99.90
1129;DHT22;553;51.038;7.216;2024-01-15T01:13:45;1.00;99.90
1129;DHT22;553;51.038;7.216;2024-01-15T01:16:11;1.10;99.90
1129;DHT22;553;51.038;7.216;2024-01-15T01:18:38;1.10;99.90
1129;DHT22;553;51.038;7.216;2024-01-15T01:21:05;1.10;99.90
1129;DHT22;553;51.038;7.216;2024-01-15T01:23:32;1.10;99.90
1129;DHT22;553;51.038;7.216;2024-01-15T01:25:59;1.10;99.90
1129;DHT22;553;51.038;7.216;2024-01-15T01:28:26;1.10;99.90
1129;DHT22;553;51.038;7.216;2024-01-15T01:30:53;1.10;99.90
1129;DHT22;553;51.038;7.216;2024-01-15T01:33:20;1.10;99.90
1129;DHT22;553;51.038;7.216;2024-01-15T01:35:47;1.10;99.90
1129;DHT22;553;51.038;7.216;2024-01-15T01:38:13;1.00;99.90
1129;DHT22;553;51.038;7.216;2024-01-15T01:40:41;1.10;99.90
1129;DHT22;553;51.038;7.216;2024-01-15T01:43:09;1.10;99.90
1129;DHT22;553;51.038;7.216;2024-01-15T01:45:36;1.20;99.90
1129;DHT22;553;51.038;7.216;2024-01-15T01:48:03;1.10;99.90
1129;DHT22;553;51.038;7.216;2024-01-15T01:50:31;1.20;99.90
1129;DHT22;553;51.038;7.216;2024-01-15T01:52:59;1.20;99.90
1129;DHT22;553;51.038;7.216;2024-01-15T01:55:29;1.20;99.90
1129;DHT22;553;51.038;7.216;2024-01-15T01:57:57;1.20;99.90
1129;DHT22;553;51.038;7.216;2024-01-15T02:00:24;1.20;99.90
1129;DHT22;553;51.038;7.216;2024-01-15T02:02:51;1.30;99.90
1129;DHT22;553;51.038;7.216;2024-01-15T02:05:22;1.20;99.90
1129;DHT22;553;51.038;7.216;2024-01-15T02:07:49;1.20;99.90
1129;DHT22;553;51.038;7.216;2024-01-15T02:10:15;1.20;99.90
1129;DHT22;553;51.038;7.216;2024-01-15T02:12:43;1.10;99.90
1129;DHT22;553;51.038;7.216;2024-01-15T02:15:10;1.10;99.90
1129;DHT22;553;51.038;7.216;2024-01-15T02:18:00;1.20;99.90
1129;DHT22;553;51.038;7.216;2024-01-15T02:20:27;1.10;99.90
1129;DHT22;553;51.038;7.216;2024-01-15T02:23:01;1.10;99.90
1129;DHT22;553;51.038;7.216;2024-01-15T02:25:27;1.10;99.90
1129;DHT22;553;51.038;7.216;2024-01-15T02:27:54;1.10;99.90
1129;DHT22;553;51.038;7.216;2024-01-15T02:30:22;1.20;99.90
1129;DHT22;553;51.038;7.216;2024-01-15T02:32:50;1.30;99.90
1129;DHT22;553;51.038;7.216;2024-01-15T02:35:17;1.30;99.90
1129;DHT22;553;51.038;7.216;2024-01-15T02:37:44;1.30;99.90
1129;DHT22;553;51.038;7.216;2024-01-15T02:40:11;1.30;99.90
1129;DHT22;553;51.038;7.216;2024-01-15T02:42:38;1.20;99.90
1129;DHT22;553;51.038;7.216;2024-01-15T02:45:05;1.30;99.90
1129;DHT22;553;51.038;7.216;2024-01-15T02:47:31;1.20;99.90
1129;DHT22;553;51.038;7.216;2024-01-15T02:49:58;1.30;99.90
1129;DHT22;553;51.038;7.216;2024-01-15T02:52:25;1.40;99.90
1129;DHT22;553;51.038;7.216;2024-01-15T02:54:52;1.40;99.90
1129;DHT22;553;51.038;7.216;2024-01-15T02:57:18;1.30;99.90
1129;DHT22;553;51.038;7.216;2024-01-15T02:59:45;1.30;99.90
1129;DHT22;553;51.038;7.216;2024-01-15T03:02:12;1.20;99.90
1129;DHT22;553;51.038;7.216;2024-01-15T03:04:43;1.30;99.90
1129;DHT22;553;51.038;7.216;2024-01-15T03:07:10;1.20;99.90
1129;DHT22;553;51.038;7.216;2024-01-15T03:09:37;1.20;99.90
1129;DHT22;553;51.038;7.216;2024-01-15T03:12:04;1.30;99.90
1129;DHT22;553;51.038;7.216;2024-01-15T03:14:31;1.20;99.90
1129;DHT22;553;51.038;7.216;2024-01-15T03:16:58;1.20;99.90
1129;DHT22;553;51.038;7.216;2024-01-15T03:19:24;1.40;99.90
1129;DHT22;553;51.038;7.216;2024-01-15T03:21:51;1.30;99.90
1129;DHT22;553;51.038;7.216;2024-01-15T03:24:18;1.30;99.90
1129;DHT22;553;51.038;7.216;2024-01-15T03:26:45;1.40;99.90
1129;DHT22;553;51.038;7.216;2024-01-15T03:29:12;1.50;99.90
1129;DHT22;553;51.038;7.216;2024-01-15T03:31:38;1.50;99.90
1129;DHT22;553;51.038;7.216;2024-01-15T03:34:05;1.50;99.90
1129;DHT22;553;51.038;7.216;2024-01-15T03:36:32;1.50;99.90
1129;DHT22;553;51.038;7.216;2024-01-15T03:38:59;1.40;99.90
1129;DHT22;553;51.038;7.216;2024-01-15T03:41:26;1.50;99.90
1129;DHT22;553;51.038;7.216;2024-01-15T03:43:52;1.40;99.90
1129;DHT22;553;51.038;7.216;2024-01-15T03:46:19;1.40;99.90
1129;DHT22;553;51.038;7.216;2024-01-15T03:48:46;1.40;99.90
1129;DHT22;553;51.038;7.216;2024-01-15T03:51:15;1.50;99.90
1129;DHT22;553;51.038;7.216;2024-01-15T03:53:41;1.40;99.90
1129;DHT22;553;51.038;7.216;2024-01-15T03:56:08;1.50;99.90
1129;DHT22;553;51.038;7.216;2024-01-15T03:58:35;1.50;99.90
1129;DHT22;553;51.038;7.216;2024-01-15T04:01:02;1.50;99.90
1129;DHT22;553;51.038;7.216;2024-01-15T04:03:29;1.50;99.90
1129;DHT22;553;51.038;7.216;2024-01-15T04:05:56;1.40;99.90
1129;DHT22;553;51.038;7.216;2024-01-15T04:08:23;1.40;99.90
1129;DHT22;553;51.038;7.216;2024-01-15T04:10:50;1.50;99.90
1129;DHT22;553;51.038;7.216;2024-01-15T04:13:17;1.50;99.90
1129;DHT22;553;51.038;7.216;2024-01-15T04:15:43;1.50;99.90
1129;DHT22;553;51.038;7.216;2024-01-15T04:18:10;1.50;99.90
1129;DHT22;553;51.038;7.216;2024-01-15T04:20:37;1.50;99.90
1129;DHT22;553;51.038;7.216;2024-01-15T04:23:05;1.60;99.90
1129;DHT22;553;51.038;7.216;2024-01-15T04:25:31;1.50;99.90
1129;DHT22;553;51.038;7.216;2024-01-15T04:27:58;1.50;99.90
1129;DHT22;553;51.038;7.216;2024-01-15T04:30:25;1.50;99.90
1129;DHT22;553;51.038;7.216;2024-01-15T04:32:52;1.50;99.90
1129;DHT22;553;51.038;7.216;2024-01-15T04:35:19;1.60;99.90
1129;DHT22;553;51.038;7.216;2024-01-15T04:37:45;1.50;99.90
1129;DHT22;553;51.038;7.216;2024-01-15T04:40:12;1.40;99.90
1129;DHT22;553;51.038;7.216;2024-01-15T04:42:40;1.50;99.90
1129;DHT22;553;51.038;7.216;2024-01-15T04:45:06;1.50;99.90
1129;DHT22;553;51.038;7.216;2024-01-15T04:47:33;1.50;99.90
1129;DHT22;553;51.038;7.216;2024-01-15T04:50:00;1.40;99.90
1129;DHT22;553;51.038;7.216;2024-01-15T04:52:27;1.30;99.90
1129;DHT22;553;51.038;7.216;2024-01-15T04:54:53;1.40;99.90
1129;DHT22;553;51.038;7.216;2024-01-15T04:57:20;1.30;99.90
1129;DHT22;553;51.038;7.216;2024-01-15T04:59:47;1.50;99.90
1129;DHT22;553;51.038;7.216;2024-01-15T05:02:14;1.50;99.90
1129;DHT22;553;51.038;7.216;2024-01-15T05:04:40;1.50;99.90
1129;DHT22;553;51.038;7.216;2024-01-15T05:07:07;1.50;99.90
1129;DHT22;553;51.038;7.216;2024-01-15T05:09:35;1.50;99.90
1129;DHT22;553;51.038;7.216;2024-01-15T05:12:01;1.40;99.90
1129;DHT22;553;51.038;7.216;2024-01-15T05:14:28;1.40;99.90
1129;DHT22;553;51.038;7.216;2024-01-15T05:16:55;1.40;99.90
1129;DHT22;553;51.038;7.216;2024-01-15T05:19:22;1.30;99.90
1129;DHT22;553;51.038;7.216;2024-01-15T05:21:48;1.30;99.90
1129;DHT22;553;51.038;7.216;2024-01-15T05:24:15;1.30;99.90
1129;DHT22;553;51.038;7.216;2024-01-15T05:26:42;1.30;99.90
1129;DHT22;553;51.038;7.216;2024-01-15T05:29:09;1.40;99.90
1129;DHT22;553;51.038;7.216;2024-01-15T05:31:36;1.50;99.90
1129;DHT22;553;51.038;7.216;2024-01-15T05:34:03;1.50;99.90
1129;DHT22;553;51.038;7.216;2024-01-15T05:36:30;1.50;99.90
1129;DHT22;553;51.038;7.216;2024-01-15T05:38:57;1.50;99.90
1129;DHT22;553;51.038;7.216;2024-01-15T05:41:23;1.50;99.90
1129;DHT22;553;51.038;7.216;2024-01-15T05:43:50;1.50;99.90
1129;DHT22;553;51.038;7.216;2024-01-15T05:46:17;1.50;99.90
1129;DHT22;553;51.038;7.216;2024-01-15T05:48:44;1.50;99.90
1129;DHT22;553;51.038;7.216;2024-01-15T05:51:10;1.50;99.90
1129;DHT22;553;51.038;7.216;2024-01-15T05:53:37;1.50;99.90
1129;DHT22;553;51.038;7.216;2024-01-15T05:56:07;1.50;99.90
1129;DHT22;553;51.038;7.216;2024-01-15T05:58:34;1.60;99.90
1129;DHT22;553;51.038;7.216;2024-01-15T06:01:01;1.60;99.90
1129;DHT22;553;51.038;7.216;2024-01-15T06:03:27;1.60;99.90
1129;DHT22;553;51.038;7.216;2024-01-15T06:05:54;1.50;99.90
1129;DHT22;553;51.038;7.216;2024-01-15T06:08:21;1.50;99.90
1129;DHT22;553;51.038;7.216;2024-01-15T06:10:48;1.50;99.90
1129;DHT22;553;51.038;7.216;2024-01-15T06:13:14;1.50;99.90
1129;DHT22;553;51.038;7.216;2024-01-15T06:15:41;1.50;99.90
1129;DHT22;553;51.038;7.216;2024-01-15T06:18:08;1.50;99.90
1129;DHT22;553;51.038;7.216;2024-01-15T06:20:35;1.50;99.90
1129;DHT22;553;51.038;7.216;2024-01-15T06:23:02;1.50;99.90
1129;DHT22;553;51.038;7.216;2024-01-15T06:25:29;1.70;99.90
1129;DHT22;553;51.038;7.216;2024-01-15T06:27:55;1.60;99.90
1129;DHT22;553;51.038;7.216;2024-01-15T06:30:23;1.60;99.90
1129;DHT22;553;51.038;7.216;2024-01-15T06:32:50;1.50;99.90
1129;DHT22;553;51.038;7.216;2024-01-15T06:35:17;1.50;99.90
1129;DHT22;553;51.038;7.216;2024-01-15T06:37:48;1.60;99.90
1129;DHT22;553;51.038;7.216;2024-01-15T06:40:15;1.60;99.90
1129;DHT22;553;51.038;7.216;2024-01-15T06:42:42;1.60;99.90
1129;DHT22;553;51.038;7.216;2024-01-15T06:45:09;1.60;99.90
1129;DHT22;553;51.038;7.216;2024-01-15T06:47:35;1.60;99.90
1129;DHT22;553;51.038;7.216;2024-01-15T06:50:02;1.60;99.90
1129;DHT22;553;51.038;7.216;2024-01-15T06:52:29;1.70;99.90
1129;DHT22;553;51.038;7.216;2024-01-15T06:54:56;1.60;99.90
1129;DHT22;553;51.038;7.216;2024-01-15T06:57:22;1.60;99.90
1129;DHT22;553;51.038;7.216;2024-01-15T06:59:49;1.60;99.90
1129;DHT22;553;51.038;7.216;2024-01-15T07:02:16;1.60;99.90
1129;DHT22;553;51.038;7.216;2024-01-15T07:04:43;1.60;99.90
1129;DHT22;553;51.038;7.216;2024-01-15T07:07:10;1.50;99.90
1129;DHT22;553;51.038;7.216;2024-01-15T07:09:37;2.20;99.90
1129;DHT22;553;51.038;7.216;2024-01-15T07:12:04;2.40;99.90
1129;DHT22;553;51.038;7.216;2024-01-15T07:14:31;2.00;99.90
1129;DHT22;553;51.038;7.216;2024-01-15T07:16:57;2.00;99.90
1129;DHT22;553;51.038;7.216;2024-01-15T07:19:24;1.90;99.90
1129;DHT22;553;51.038;7.216;2024-01-15T07:21:52;1.80;99.90
1129;DHT22;553;51.038;7.216;2024-01-15T07:24:22;1.80;99.90
1129;DHT22;553;51.038;7.216;2024-01-15T07:26:49;1.70;99.90
1129;DHT22;553;51.038;7.216;2024-01-15T07:29:16;1.70;99.90
1129;DHT22;553;51.038;7.216;2024-01-15T07:31:48;1.70;99.90
1129;DHT22;553;51.038;7.216;2024-01-15T07:34:16;1.70;99.90
1129;DHT22;553;51.038;7.216;2024-01-15T07:36:44;1.60;99.90
1129;DHT22;553;51.038;7.216;2024-01-15T07:39:12;1.70;99.90
1129;DHT22;553;51.038;7.216;2024-01-15T07:41:39;1.60;99.90
1129;DHT22;553;51.038;7.216;2024-01-15T07:44:06;1.60;99.90
1129;DHT22;553;51.038;7.216;2024-01-15T07:46:32;1.60;99.90
1129;DHT22;553;51.038;7.216;2024-01-15T07:48:59;1.60;99.90
1129;DHT22;553;51.038;7.216;2024-01-15T07:51:26;1.80;99.90
1129;DHT22;553;51.038;7.216;2024-01-15T07:53:54;1.80;99.90
1129;DHT22;553;51.038;7.216;2024-01-15T07:56:21;1.70;99.90
1129;DHT22;553;51.038;7.216;2024-01-15T07:58:48;1.60;99.90
1129;DHT22;553;51.038;7.216;2024-01-15T08:01:15;1.60;99.90
1129;DHT22;553;51.038;7.216;2024-01-15T08:03:42;1.70;99.90
1129;DHT22;553;51.038;7.216;2024-01-15T08:06:10;1.60;99.90
1129;DHT22;553;51.038;7.216;2024-01-15T08:08:37;1.60;99.90
1129;DHT22;553;51.038;7.216;2024-01-15T08:11:04;1.60;99.90
1129;DHT22;553;51.038;7.216;2024-01-15T08:13:31;1.70;99.90
1129;DHT22;553;51.038;7.216;2024-01-15T08:15:58;1.70;99.90
1129;DHT22;553;51.038;7.216;2024-01-15T08:18:24;1.70;99.90
1129;DHT22;553;51.038;7.216;2024-01-15T08:20:52;1.70;99.90
1129;DHT22;553;51.038;7.216;2024-01-15T08:23:19;1.70;99.90
1129;DHT22;553;51.038;7.216;2024-01-15T08:25:46;1.70;99.90
1129;DHT22;553;51.038;7.216;2024-01-15T08:28:13;1.60;99.90
1129;DHT22;553;51.038;7.216;2024-01-15T08:30:40;1.70;99.90
1129;DHT22;553;51.038;7.216;2024-01-15T08:33:07;1.60;99.90
1129;DHT22;553;51.038;7.216;2024-01-15T08:35:46;1.60;99.90
1129;DHT22;553;51.038;7.216;2024-01-15T08:38:13;1.60;99.90
1129;DHT22;553;51.038;7.216;2024-01-15T08:40:40;1.50;99.90
1129;DHT22;553;51.038;7.216;2024-01-15T08:43:07;1.50;99.90
1129;DHT22;553;51.038;7.216;2024-01-15T08:45:33;1.60;99.90
1129;DHT22;553;51.038;7.216;2024-01-15T08:48:01;1.70;99.90
1129;DHT22;553;51.038;7.216;2024-01-15T08:50:29;1.70;99.90
1129;DHT22;553;51.038;7.216;2024-01-15T08:52:56;1.70;99.90
1129;DHT22;553;51.038;7.216;2024-01-15T08:55:23;1.70;99.90
1129;DHT22;553;51.038;7.216;2024-01-15T08:57:50;1.70;99.90
1129;DHT22;553;51.038;7.216;2024-01-15T09:00:17;1.70;99.90
1129;DHT22;553;51.038;7.216;2024-01-15T09:02:44;1.80;99.90
1129;DHT22;553;51.038;7.216;2024-01-15T09:05:11;1.80;99.90
1129;DHT22;553;51.038;7.216;2024-01-15T09:07:38;1.70;99.90
1129;DHT22;553;51.038;7.216;2024-01-15T09:10:05;1.60;99.90
1129;DHT22;553;51.038;7.216;2024-01-15T09:12:32;1.60;99.90
1129;DHT22;553;51.038;7.216;2024-01-15T09:14:59;2.00;99.90
1129;DHT22;553;51.038;7.216;2024-01-15T09:17:25;6.00;99.90
1129;DHT22;553;51.038;7.216;2024-01-15T09:19:54;7.90;99.30
1129;DHT22;553;51.038;7.216;2024-01-15T09:22:21;7.60;96.90
1129;DHT22;553;51.038;7.216;2024-01-15T09:24:48;6.00;99.80
1129;DHT22;553;51.038;7.216;2024-01-15T09:27:15;4.60;99.90
1129;DHT22;553;51.038;7.216;2024-01-15T09:29:42;3.70;99.90
1129;DHT22;553;51.038;7.216;2024-01-15T09:32:10;2.80;99.90
1129;DHT22;553;51.038;7.216;2024-01-15T09:34:37;2.40;99.90
1129;DHT22;553;51.038;7.216;2024-01-15T09:37:05;2.20;99.90
1129;DHT22;553;51.038;7.216;2024-01-15T09:39:31;2.00;99.90
1129;DHT22;553;51.038;7.216;2024-01-15T09:41:58;1.90;99.90
1129;DHT22;553;51.038;7.216;2024-01-15T09:44:26;1.90;99.90
1129;DHT22;553;51.038;7.216;2024-01-15T09:46:53;1.80;99.90
1129;DHT22;553;51.038;7.216;2024-01-15T09:49:21;1.70;99.90
1129;DHT22;553;51.038;7.216;2024-01-15T09:51:49;1.70;99.90
1129;DHT22;553;51.038;7.216;2024-01-15T09:54:28;2.80;99.90
1129;DHT22;553;51.038;7.216;2024-01-15T09:56:56;2.60;99.90
1129;DHT22;553;51.038;7.216;2024-01-15T09:59:24;2.30;99.90
1129;DHT22;553;51.038;7.216;2024-01-15T10:01:51;2.20;99.90
1129;DHT22;553;51.038;7.216;2024-01-15T10:04:18;2.00;99.90
1129;DHT22;553;51.038;7.216;2024-01-15T10:06:46;2.00;99.90
1129;DHT22;553;51.038;7.216;2024-01-15T10:09:14;2.00;99.90
1129;DHT22;553;51.038;7.216;2024-01-15T10:11:44;1.90;99.90
1129;DHT22;553;51.038;7.216;2024-01-15T10:14:12;1.80;99.90
1129;DHT22;553;51.038;7.216;2024-01-15T10:16:42;1.60;99.90
1129;DHT22;553;51.038;7.216;2024-01-15T10:19:09;1.60;99.90
1129;DHT22;553;51.038;7.216;2024-01-15T10:21:37;1.70;99.90
1129;DHT22;553;51.038;7.216;2024-01-15T10:24:04;1.70;99.90
1129;DHT22;553;51.038;7.216;2024-01-15T10:26:33;1.70;99.90
1129;DHT22;553;51.038;7.216;2024-01-15T10:29:00;1.70;99.90
1129;DHT22;553;51.038;7.216;2024-01-15T10:31:27;1.60;99.90
1129;DHT22;553;51.038;7.216;2024-01-15T10:34:10;1.70;99.90
1129;DHT22;553;51.038;7.216;2024-01-15T10:36:42;1.70;99.90
1129;DHT22;553;51.038;7.216;2024-01-15T10:39:13;1.70;99.90
1129;DHT22;553;51.038;7.216;2024-01-15T10:41:40;1.60;99.90
1129;DHT22;553;51.038;7.216;2024-01-15T10:44:07;1.60;99.90
1129;DHT22;553;51.038;7.216;2024-01-15T10:46:34;1.70;99.90
1129;DHT22;553;51.038;7.216;2024-01-15T10:49:01;1.70;99.90
1129;DHT22;553;51.038;7.216;2024-01-15T10:51:35;1.70;99.90
1129;DHT22;553;51.038;7.216;2024-01-15T10:54:02;1.70;99.90
1129;DHT22;553;51.038;7.216;2024-01-15T10:56:31;1.60;99.90
1129;DHT22;553;51.038;7.216;2024-01-15T10:58:59;1.70;99.90
1129;DHT22;553;51.038;7.216;2024-01-15T11:01:28;1.80;99.90
1129;DHT22;553;51.038;7.216;2024-01-15T11:03:58;1.70;99.90
1129;DHT22;553;51.038;7.216;2024-01-15T11:06:25;1.70;99.90
1129;DHT22;553;51.038;7.216;2024-01-15T11:08:55;1.70;99.90
1129;DHT22;553;51.038;7.216;2024-01-15T11:11:23;1.70;99.90
1129;DHT22;553;51.038;7.216;2024-01-15T11:13:50;1.70;99.90
1129;DHT22;553;51.038;7.216;2024-01-15T11:16:19;1.80;99.90
1129;DHT22;553;51.038;7.216;2024-01-15T11:21:25;1.70;99.90
1129;DHT22;553;51.038;7.216;2024-01-15T11:23:58;1.90;99.90
1129;DHT22;553;51.038;7.216;2024-01-15T11:29:00;1.90;99.90
1129;DHT22;553;51.038;7.216;2024-01-15T11:34:09;1.70;99.90
1129;DHT22;553;51.038;7.216;2024-01-15T11:41:57;1.90;99.90
1129;DHT22;553;51.038;7.216;2024-01-15T11:44:25;1.80;99.90
1129;DHT22;553;51.038;7.216;2024-01-15T11:47:00;1.80;99.90
1129;DHT22;553;51.038;7.216;2024-01-15T11:49:47;1.90;99.90
1129;DHT22;553;51.038;7.216;2024-01-15T11:52:21;1.70;99.90
1129;DHT22;553;51.038;7.216;2024-01-15T11:55:17;1.80;99.90
1129;DHT22;553;51.038;7.216;2024-01-15T11:57:52;1.90;99.90
1129;DHT22;553;51.038;7.216;2024-01-15T12:00:22;2.00;99.90
1129;DHT22;553;51.038;7.216;2024-01-15T12:02:49;2.00;99.90
1129;DHT22;553;51.038;7.216;2024-01-15T12:05:18;2.30;99.90
1129;DHT22;553;51.038;7.216;2024-01-15T12:07:47;2.10;99.90
1129;DHT22;553;51.038;7.216;2024-01-15T12:10:18;3.70;99.90
1129;DHT22;553;51.038;7.216;2024-01-15T12:13:05;3.30;99.90
1129;DHT22;553;51.038;7.216;2024-01-15T12:15:36;3.00;99.90
1129;DHT22;553;51.038;7.216;2024-01-15T12:18:03;2.60;99.90
1129;DHT22;553;51.038;7.216;2024-01-15T12:20:31;2.10;99.90
1129;DHT22;553;51.038;7.216;2024-01-15T12:22:58;2.40;99.90
1129;DHT22;553;51.038;7.216;2024-01-15T12:25:30;2.20;99.90
1129;DHT22;553;51.038;7.216;2024-01-15T12:27:59;2.10;99.90
1129;DHT22;553;51.038;7.216;2024-01-15T12:30:27;2.00;99.90
1129;DHT22;553;51.038;7.216;2024-01-15T12:32:54;2.10;99.90
1129;DHT22;553;51.038;7.216;2024-01-15T12:35:21;1.90;99.90
1129;DHT22;553;51.038;7.216;2024-01-15T12:37:48;2.00;99.90
1129;DHT22;553;51.038;7.216;2024-01-15T12:40:19;2.10;99.90
1129;DHT22;553;51.038;7.216;2024-01-15T12:42:46;2.20;99.90
1129;DHT22;553;51.038;7.216;2024-01-15T12:45:14;2.10;99.90
1129;DHT22;553;51.038;7.216;2024-01-15T12:47:41;2.00;99.90
1129;DHT22;553;51.038;7.216;2024-01-15T12:50:10;1.90;99.90
1129;DHT22;553;51.038;7.216;2024-01-15T12:52:45;1.90;99.90
1129;DHT22;553;51.038;7.216;2024-01-15T12:55:14;1.90;99.90
1129;DHT22;553;51.038;7.216;2024-01-15T12:57:41;2.00;99.90
1129;DHT22;553;51.038;7.216;2024-01-15T13:00:08;2.00;99.90
1129;DHT22;553;51.038;7.216;2024-01-15T13:02:40;2.00;99.90
1129;DHT22;553;51.038;7.216;2024-01-15T13:05:09;2.00;99.90
1129;DHT22;553;51.038;7.216;2024-01-15T13:07:38;2.00;99.90
1129;DHT22;553;51.038;7.216;2024-01-15T13:10:05;2.10;99.90
1129;DHT22;553;51.038;7.216;2024-01-15T13:12:33;2.20;99.90
1129;DHT22;553;51.038;7.216;2024-01-15T13:15:00;2.10;99.90
1129;DHT22;553;51.038;7.216;2024-01-15T13:17:30;2.00;99.90
1129;DHT22;553;51.038;7.216;2024-01-15T13:19:56;2.10;99.90
1129;DHT22;553;51.038;7.216;2024-01-15T13:22:23;2.00;99.90
1129;DHT22;553;51.038;7.216;2024-01-15T13:24:56;2.00;99.90
1129;DHT22;553;51.038;7.216;2024-01-15T13:27:23;1.90;99.90
1129;DHT22;553;51.038;7.216;2024-01-15T13:29:50;1.90;99.90
1129;DHT22;553;51.038;7.216;2024-01-15T13:32:28;2.00;99.90
1129;DHT22;553;51.038;7.216;2024-01-15T13:34:59;2.10;99.90
1129;DHT22;553;51.038;7.216;2024-01-15T13:37:26;2.10;99.90
1129;DHT22;553;51.038;7.216;2024-01-15T13:39:54;2.10;99.90
1129;DHT22;553;51.038;7.216;2024-01-15T13:42:21;2.00;99.90
1129;DHT22;553;51.038;7.216;2024-01-15T13:44:51;2.80;99.90
1129;DHT22;553;51.038;7.216;2024-01-15T13:47:18;2.60;99.90
1129;DHT22;553;51.038;7.216;2024-01-15T13:49:45;2.60;99.90
1129;DHT22;553;51.038;7.216;2024-01-15T13:52:12;2.30;99.90
1129;DHT22;553;51.038;7.216;2024-01-15T13:54:39;2.30;99.90
1129;DHT22;553;51.038;7.216;2024-01-15T13:57:16;2.20;99.90
1129;DHT22;553;51.038;7.216;2024-01-15T13:59:45;2.10;99.90
1129;DHT22;553;51.038;7.216;2024-01-15T14:02:11;2.10;99.90
1129;DHT22;553;51.038;7.216;2024-01-15T14:04:42;2.00;99.90
1129;DHT22;553;51.038;7.216;2024-01-15T14:07:09;2.00;99.90
1129;DHT22;553;51.038;7.216;2024-01-15T14:09:36;2.00;99.90
1129;DHT22;553;51.038;7.216;2024-01-15T14:12:05;1.90;99.90
1129;DHT22;553;51.038;7.216;2024-01-15T14:14:33;1.90;99.90
1129;DHT22;553;51.038;7.216;2024-01-15T14:17:00;1.90;99.90
1129;DHT22;553;51.038;7.216;2024-01-15T14:19:26;2.00;99.90
1129;DHT22;553;51.038;7.216;2024-01-15T14:21:54;2.00;99.90
1129;DHT22;553;51.038;7.216;2024-01-15T14:24:22;1.90;99.90
1129;DHT22;553;51.038;7.216;2024-01-15T14:26:48;1.90;99.90
1129;DHT22;553;51.038;7.216;2024-01-15T14:29:15;1.90;99.90
1129;DHT22;553;51.038;7.216;2024-01-15T14:31:42;1.90;99.90
1129;DHT22;553;51.038;7.216;2024-01-15T14:34:09;1.90;99.90
1129;DHT22;553;51.038;7.216;2024-01-15T14:36:38;2.00;99.90
1129;DHT22;553;51.038;7.216;2024-01-15T14:39:05;2.00;99.90
1129;DHT22;553;51.038;7.216;2024-01-15T14:41:32;2.00;99.90
1129;DHT22;553;51.038;7.216;2024-01-15T14:43:59;2.00;99.90
1129;DHT22;553;51.038;7.216;2024-01-15T14:46:25;2.00;99.90
1129;DHT22;553;51.038;7.216;2024-01-15T14:48:53;1.80;99.90
1129;DHT22;553;51.038;7.216;2024-01-15T14:51:20;1.70;99.90
1129;DHT22;553;51.038;7.216;2024-01-15T14:53:47;1.60;99.90
1129;DHT22;553;51.038;7.216;2024-01-15T14:56:15;1.60;99.90
1129;DHT22;553;51.038;7.216;2024-01-15T14:58:44;1.70;99.90
1129;DHT22;553;51.038;7.216;2024-01-15T15:01:11;1.70;99.90
1129;DHT22;553;51.038;7.216;2024-01-15T15:03:39;1.70;99.90
1129;DHT22;553;51.038;7.216;2024-01-15T15:06:06;1.80;99.90
1129;DHT22;553;51.038;7.216;2024-01-15T15:08:36;1.70;99.90
1129;DHT22;553;51.038;7.216;2024-01-15T15:11:04;1.80;99.90
1129;DHT22;553;51.038;7.216;2024-01-15T15:13:30;1.80;99.90
1129;DHT22;553;51.038;7.216;2024-01-15T15:16:10;1.80;99.90
1129;DHT22;553;51.038;7.216;2024-01-15T15:18:37;1.70;99.90
1129;DHT22;553;51.038;7.216;2024-01-15T15:21:04;1.80;99.90
1129;DHT22;553;51.038;7.216;2024-01-15T15:23:31;1.90;99.90
1129;DHT22;553;51.038;7.216;2024-01-15T15:25:58;1.90;99.90
1129;DHT22;553;51.038;7.216;2024-01-15T15:28:25;1.80;99.90
1129;DHT22;553;51.038;7.216;2024-01-15T15:30:52;1.80;99.90
1129;DHT22;553;51.038;7.216;2024-01-15T15:33:19;1.80;99.90
1129;DHT22;553;51.038;7.216;2024-01-15T15:35:46;1.90;99.90
1129;DHT22;553;51.038;7.216;2024-01-15T15:38:14;1.90;99.90
1129;DHT22;553;51.038;7.216;2024-01-15T15:40:41;1.90;99.90
1129;DHT22;553;51.038;7.216;2024-01-15T15:43:08;1.90;99.90
1129;DHT22;553;51.038;7.216;2024-01-15T15:45:35;1.90;99.90
1129;DHT22;553;51.038;7.216;2024-01-15T15:48:02;1.90;99.90
1129;DHT22;553;51.038;7.216;2024-01-15T15:50:29;1.80;99.90
1129;DHT22;553;51.038;7.216;2024-01-15T15:53:00;1.80;99.90
1129;DHT22;553;51.038;7.216;2024-01-15T15:55:28;1.80;99.90
1129;DHT22;553;51.038;7.216;2024-01-15T15:57:55;1.80;99.90
1129;DHT22;553;51.038;7.216;2024-01-15T16:00:22;1.70;99.90
1129;DHT22;553;51.038;7.216;2024-01-15T16:02:49;1.70;99.90
1129;DHT22;553;51.038;7.216;2024-01-15T16:05:16;1.70;99.90
1129;DHT22;553;51.038;7.216;2024-01-15T16:07:42;1.60;99.90
1129;DHT22;553;51.038;7.216;2024-01-15T16:10:09;1.70;99.90
1129;DHT22;553;51.038;7.216;2024-01-15T16:12:36;1.60;99.90
1129;DHT22;553;51.038;7.216;2024-01-15T16:15:22;1.60;99.90
1129;DHT22;553;51.038;7.216;2024-01-15T16:17:50;1.60;99.90
1129;DHT22;553;51.038;7.216;2024-01-15T16:20:37;1.50;99.90
1129;DHT22;553;51.038;7.216;2024-01-15T16:23:24;1.50;99.90
1129;DHT22;553;51.038;7.216;2024-01-15T16:26:11;1.40;99.90
1129;DHT22;553;51.038;7.216;2024-01-15T16:28:39;1.40;99.90
1129;DHT22;553;51.038;7.216;2024-01-15T16:31:07;1.40;99.90
1129;DHT22;553;51.038;7.216;2024-01-15T16:33:36;1.50;99.90
1129;DHT22;553;51.038;7.216;2024-01-15T16:36:03;1.50;99.90
1129;DHT22;553;51.038;7.216;2024-01-15T16:38:30;1.40;99.90
1129;DHT22;553;51.038;7.216;2024-01-15T16:40:57;1.40;99.90
1129;DHT22;553;51.038;7.216;2024-01-15T16:43:26;1.30;99.90
1129;DHT22;553;51.038;7.216;2024-01-15T16:45:53;1.30;99.90
1129;DHT22;553;51.038;7.216;2024-01-15T16:48:20;1.40;99.90
1129;DHT22;553;51.038;7.216;2024-01-15T16:50:47;1.40;99.90